sensor_id;sensor_type;location;lat;lon;timestamp;pressure;altitude;pressure_sealevel;temperature;humidity
5879;BME280;2965;42.640;23.370;2023-03-13T05:03:07;94997.59;;;-0.20;100.00
5879;BME280;2965;42.640;23.370;2023-03-13T05:05:34;94999.66;;;-0.26;100.00
5879;BME280;2965;42.640;23.370;2023-03-13T05:07:59;94996.97;;;-0.24;100.00
5879;BME280;2965;42.640;23.370;2023-03-13T05:10:25;94996.84;;;-0.22;100.00
5879;BME280;2965;42.640;23.370;2023-03-13T05:12:51;94995.22;;;-0.23;100.00
5879;BME280;2965;42.640;23.370;2023-03-13T05:15:16;94999.41;;;-0.22;100.00
5879;BME280;2965;42.640;23.370;2023-03-13T05:17:42;94995.38;;;-0.14;100.00
5879;BME280;2965;42.640;23.370;2023-03-13T05:20:08;95005.31;;;0.04;100.00
5879;BME280;2965;42.640;23.370;2023-03-13T05:22:35;95018.91;;;0.06;100.00
5879;BME280;2965;42.640;23.370;2023-03-13T05:25:01;95018.66;;;0.21;100.00
5879;BME280;2965;42.640;23.370;2023-03-13T05:27:26;95018.97;;;0.17;100.00
5879;BME280;2965;42.640;23.370;2023-03-13T05:29:52;95018.88;;;0.18;100.00
5879;BME280;2965;42.640;23.370;2023-03-13T05:32:17;95020.06;;;0.25;100.00
5879;BME280;2965;42.640;23.370;2023-03-13T05:34:42;95016.88;;;0.22;100.00
5879;BME280;2965;42.640;23.370;2023-03-13T05:37:08;95027.09;;;0.23;100.00
5879;BME280;2965;42.640;23.370;2023-03-13T05:39:33;95028.94;;;0.21;100.00
5879;BME280;2965;42.640;23.370;2023-03-13T05:41:58;95028.09;;;0.34;100.00
5879;BME280;2965;42.640;23.370;2023-03-13T05:44:24;95034.22;;;0.44;100.00
5879;BME280;2965;42.640;23.370;2023-03-13T05:46:49;95037.88;;;0.53;100.00
5879;BME280;2965;42.640;23.370;2023-03-13T05:49:14;95034.72;;;0.49;100.00
5879;BME280;2965;42.640;23.370;2023-03-13T05:51:40;95032.47;;;0.44;100.00
5879;BME280;2965;42.640;23.370;2023-03-13T05:54:05;95038.88;;;0.63;100.00
5879;BME280;2965;42.640;23.370;2023-03-13T05:56:30;95044.63;;;0.66;100.00
5879;BME280;2965;42.640;23.370;2023-03-13T05:58:56;95043.13;;;0.75;100.00
5879;BME280;2965;42.640;23.370;2023-03-13T06:01:21;95040.94;;;0.82;100.00
5879;BME280;2965;42.640;23.370;2023-03-13T06:03:46;95048.22;;;0.88;100.00
5879;BME280;2965;42.640;23.370;2023-03-13T06:06:12;95050.38;;;0.94;100.00
5879;BME280;2965;42.640;23.370;2023-03-13T06:08:37;95058.56;;;0.99;100.00
5879;BME280;2965;42.640;23.370;2023-03-13T06:11:03;95055.31;;;1.08;100.00
5879;BME280;2965;42.640;23.370;2023-03-13T06:13:28;95057.91;;;1.19;100.00
5879;BME280;2965;42.640;23.370;2023-03-13T06:15:55;95062.63;;;1.25;100.00
5879;BME280;2965;42.640;23.370;2023-03-13T06:18:22;95063.47;;;1.26;100.00
5879;BME280;2965;42.640;23.370;2023-03-13T06:20:48;95056.19;;;1.31;100.00
5879;BME280;2965;42.640;23.370;2023-03-13T06:23:15;95055.16;;;1.34;100.00
5879;BME280;2965;42.640;23.370;2023-03-13T06:25:40;95062.69;;;1.48;100.00
5879;BME280;2965;42.640;23.370;2023-03-13T06:28:05;95058.25;;;1.61;100.00
5879;BME280;2965;42.640;23.370;2023-03-13T06:30:31;95060.00;;;1.72;100.00
5879;BME280;2965;42.640;23.370;2023-03-13T06:32:57;95061.53;;;1.86;100.00
5879;BME280;2965;42.640;23.370;2023-03-13T06:35:22;95064.72;;;1.78;100.00
5879;BME280;2965;42.640;23.370;2023-03-13T06:37:48;95065.88;;;1.85;100.00
5879;BME280;2965;42.640;23.370;2023-03-13T06:40:13;95053.22;;;1.82;100.00
5879;BME280;2965;42.640;23.370;2023-03-13T06:42:38;95045.13;;;1.75;100.00
5879;BME280;2965;42.640;23.370;2023-03-13T06:45:04;95036.00;;;1.83;100.00
5879;BME280;2965;42.640;23.370;2023-03-13T06:47:30;95038.34;;;1.74;100.00
5879;BME280;2965;42.640;23.370;2023-03-13T06:49:56;95027.19;;;1.51;100.00
5879;BME280;2965;42.640;23.370;2023-03-13T06:52:22;95028.72;;;1.65;100.00
5879;BME280;2965;42.640;23.370;2023-03-13T06:54:47;95040.19;;;1.72;100.00
5879;BME280;2965;42.640;23.370;2023-03-13T06:57:13;95045.88;;;1.31;100.00
5879;BME280;2965;42.640;23.370;2023-03-13T06:59:38;95041.28;;;1.12;100.00
5879;BME280;2965;42.640;23.370;2023-03-13T07:02:04;95039.13;;;0.95;100.00
5879;BME280;2965;42.640;23.370;2023-03-13T07:04:29;95039.34;;;0.92;100.00
5879;BME280;2965;42.640;23.370;2023-03-13T07:06:54;95034.84;;;1.18;100.00
5879;BME280;2965;42.640;23.370;2023-03-13T07:09:20;95030.06;;;1.24;100.00
5879;BME280;2965;42.640;23.370;2023-03-13T07:11:45;95034.44;;;1.46;100.00
5879;BME280;2965;42.640;23.370;2023-03-13T07:14:11;95037.81;;;1.36;100.00
5879;BME280;2965;42.640;23.370;2023-03-13T07:16:37;95037.22;;;1.32;100.00
5879;BME280;2965;42.640;23.370;2023-03-13T07:19:02;95030.09;;;1.47;100.00
5879;BME280;2965;42.640;23.370;2023-03-13T07:21:27;95033.16;;;1.74;100.00
5879;BME280;2965;42.640;23.370;2023-03-13T07:23:53;95032.34;;;1.74;100.00
5879;BME280;2965;42.640;23.370;2023-03-13T07:26:18;95020.03;;;2.00;100.00
5879;BME280;2965;42.640;23.370;2023-03-13T07:28:44;95029.88;;;2.17;97.37
5879;BME280;2965;42.640;23.370;2023-03-13T07:31:15;95036.91;;;2.15;95.27
5879;BME280;2965;42.640;23.370;2023-03-13T07:33:44;95035.72;;;2.19;96.59
5879;BME280;2965;42.640;23.370;2023-03-13T07:36:11;95028.66;;;2.33;94.84
5879;BME280;2965;42.640;23.370;2023-03-13T07:38:37;95021.81;;;2.54;91.87
5879;BME280;2965;42.640;23.370;2023-03-13T07:41:03;95030.22;;;2.67;89.84
5879;BME280;2965;42.640;23.370;2023-03-13T07:43:29;95031.69;;;2.38;87.85
5879;BME280;2965;42.640;23.370;2023-03-13T07:45:57;95033.81;;;2.33;87.87
5879;BME280;2965;42.640;23.370;2023-03-13T07:48:31;95032.28;;;2.41;87.23
5879;BME280;2965;42.640;23.370;2023-03-13T07:50:57;95029.09;;;2.49;86.07
5879;BME280;2965;42.640;23.370;2023-03-13T07:53:23;95046.75;;;2.76;84.68
5879;BME280;2965;42.640;23.370;2023-03-13T07:55:57;95029.84;;;2.72;84.18
5879;BME280;2965;42.640;23.370;2023-03-13T07:58:23;95032.78;;;2.99;86.70
5879;BME280;2965;42.640;23.370;2023-03-13T08:00:51;95026.28;;;2.84;88.53
5879;BME280;2965;42.640;23.370;2023-03-13T08:03:17;95012.94;;;2.68;95.31
5879;BME280;2965;42.640;23.370;2023-03-13T08:05:43;95011.03;;;3.02;97.20
5879;BME280;2965;42.640;23.370;2023-03-13T08:08:09;95011.91;;;3.12;96.24
5879;BME280;2965;42.640;23.370;2023-03-13T08:10:34;95003.34;;;3.33;98.47
5879;BME280;2965;42.640;23.370;2023-03-13T08:13:00;95005.78;;;3.55;93.59
5879;BME280;2965;42.640;23.370;2023-03-13T08:15:25;95011.88;;;3.54;93.19
5879;BME280;2965;42.640;23.370;2023-03-13T08:17:52;95004.53;;;3.80;90.77
5879;BME280;2965;42.640;23.370;2023-03-13T08:20:18;95008.28;;;3.97;90.13
5879;BME280;2965;42.640;23.370;2023-03-13T08:22:46;95000.34;;;3.89;88.81
5879;BME280;2965;42.640;23.370;2023-03-13T08:25:13;94997.25;;;3.64;90.77
5879;BME280;2965;42.640;23.370;2023-03-13T08:27:39;95008.53;;;3.94;92.47
5879;BME280;2965;42.640;23.370;2023-03-13T08:30:05;95003.16;;;4.16;88.47
5879;BME280;2965;42.640;23.370;2023-03-13T08:32:34;95001.56;;;4.35;87.59
5879;BME280;2965;42.640;23.370;2023-03-13T08:35:00;95012.38;;;4.59;90.20
5879;BME280;2965;42.640;23.370;2023-03-13T08:37:25;95014.94;;;4.40;84.47
5879;BME280;2965;42.640;23.370;2023-03-13T08:39:51;95018.94;;;4.63;85.82
5879;BME280;2965;42.640;23.370;2023-03-13T08:42:18;95008.28;;;4.95;88.56
5879;BME280;2965;42.640;23.370;2023-03-13T08:44:44;95018.66;;;4.76;83.93
5879;BME280;2965;42.640;23.370;2023-03-13T08:47:09;95019.22;;;4.70;87.06
5879;BME280;2965;42.640;23.370;2023-03-13T08:49:35;95024.53;;;4.68;86.60
5879;BME280;2965;42.640;23.370;2023-03-13T08:52:00;95018.81;;;4.74;85.84
5879;BME280;2965;42.640;23.370;2023-03-13T08:54:26;95009.25;;;5.04;83.87
5879;BME280;2965;42.640;23.370;2023-03-13T08:56:51;95015.50;;;5.30;83.05
5879;BME280;2965;42.640;23.370;2023-03-13T08:59:16;95004.19;;;5.22;78.55
5879;BME280;2965;42.640;23.370;2023-03-13T09:01:42;95006.25;;;5.18;80.20
5879;BME280;2965;42.640;23.370;2023-03-13T09:04:07;95009.91;;;5.25;80.93
5879;BME280;2965;42.640;23.370;2023-03-13T09:06:34;95019.31;;;5.26;85.51
5879;BME280;2965;42.640;23.370;2023-03-13T09:09:00;95001.00;;;5.47;84.32
5879;BME280;2965;42.640;23.370;2023-03-13T09:11:26;95005.78;;;5.52;81.28
5879;BME280;2965;42.640;23.370;2023-03-13T09:13:54;95006.47;;;5.54;81.00
5879;BME280;2965;42.640;23.370;2023-03-13T09:16:21;95005.16;;;5.77;79.37
5879;BME280;2965;42.640;23.370;2023-03-13T09:18:47;95000.06;;;5.86;79.17
5879;BME280;2965;42.640;23.370;2023-03-13T09:21:28;94992.81;;;6.26;79.50
5879;BME280;2965;42.640;23.370;2023-03-13T09:23:54;94984.22;;;6.44;73.56
5879;BME280;2965;42.640;23.370;2023-03-13T09:26:21;94988.31;;;6.46;72.20
5879;BME280;2965;42.640;23.370;2023-03-13T09:28:46;94984.78;;;6.65;71.22
5879;BME280;2965;42.640;23.370;2023-03-13T09:31:21;94986.19;;;6.77;69.42
5879;BME280;2965;42.640;23.370;2023-03-13T09:33:48;94992.88;;;6.98;68.98
5879;BME280;2965;42.640;23.370;2023-03-13T09:36:13;94987.81;;;6.96;68.54
5879;BME280;2965;42.640;23.370;2023-03-13T09:38:39;94994.69;;;7.41;68.02
5879;BME280;2965;42.640;23.370;2023-03-13T09:49:03;94993.34;;;7.63;67.59
5879;BME280;2965;42.640;23.370;2023-03-13T09:51:50;94993.09;;;8.08;68.86
5879;BME280;2965;42.640;23.370;2023-03-13T09:54:25;94989.88;;;8.15;66.14
5879;BME280;2965;42.640;23.370;2023-03-13T09:56:59;94986.06;;;8.01;65.07
5879;BME280;2965;42.640;23.370;2023-03-13T09:59:46;94981.97;;;8.32;66.34
5879;BME280;2965;42.640;23.370;2023-03-13T10:02:21;94981.28;;;8.30;65.66
5879;BME280;2965;42.640;23.370;2023-03-13T10:04:52;94973.94;;;8.68;64.41
5879;BME280;2965;42.640;23.370;2023-03-13T10:07:20;94978.53;;;9.40;64.85
5879;BME280;2965;42.640;23.370;2023-03-13T10:09:45;94972.63;;;9.62;61.00
5879;BME280;2965;42.640;23.370;2023-03-13T10:12:18;94969.22;;;9.53;62.90
5879;BME280;2965;42.640;23.370;2023-03-13T10:15:02;94967.25;;;9.47;61.47
5879;BME280;2965;42.640;23.370;2023-03-13T10:17:36;94965.66;;;9.22;59.55
5879;BME280;2965;42.640;23.370;2023-03-13T10:20:27;94947.53;;;9.45;61.64
5879;BME280;2965;42.640;23.370;2023-03-13T10:39:52;94907.41;;;10.32;56.65
5879;BME280;2965;42.640;23.370;2023-03-13T10:44:55;94910.09;;;10.08;56.80
5879;BME280;2965;42.640;23.370;2023-03-13T10:47:21;94899.91;;;10.21;59.44
5879;BME280;2965;42.640;23.370;2023-03-13T10:49:49;94896.34;;;10.76;58.46
5879;BME280;2965;42.640;23.370;2023-03-13T10:54:59;94902.84;;;11.71;55.51
5879;BME280;2965;42.640;23.370;2023-03-13T10:57:31;94886.84;;;11.80;53.16
5879;BME280;2965;42.640;23.370;2023-03-13T10:59:57;94893.34;;;12.14;52.07
5879;BME280;2965;42.640;23.370;2023-03-13T11:02:33;94888.81;;;12.80;51.65
5879;BME280;2965;42.640;23.370;2023-03-13T11:05:00;94887.44;;;12.63;52.32
5879;BME280;2965;42.640;23.370;2023-03-13T11:07:32;94878.19;;;12.67;50.01
5879;BME280;2965;42.640;23.370;2023-03-13T11:12:24;94875.53;;;11.50;53.24
5879;BME280;2965;42.640;23.370;2023-03-13T11:14:58;94859.00;;;12.09;55.14
5879;BME280;2965;42.640;23.370;2023-03-13T11:17:38;94855.69;;;12.79;51.78
5879;BME280;2965;42.640;23.370;2023-03-13T11:25:31;94854.28;;;13.61;52.22
5879;BME280;2965;42.640;23.370;2023-03-13T11:31:08;94844.19;;;12.59;51.21
5879;BME280;2965;42.640;23.370;2023-03-13T11:33:52;94838.38;;;12.85;49.61
5879;BME280;2965;42.640;23.370;2023-03-13T11:36:34;94839.78;;;12.23;48.52
5879;BME280;2965;42.640;23.370;2023-03-13T11:47:29;94817.03;;;12.95;48.76
5879;BME280;2965;42.640;23.370;2023-03-13T12:01:03;94794.41;;;13.98;45.50
5879;BME280;2965;42.640;23.370;2023-03-13T12:06:31;94785.50;;;13.51;48.54
5879;BME280;2965;42.640;23.370;2023-03-13T12:09:11;94780.97;;;13.79;50.52
5879;BME280;2965;42.640;23.370;2023-03-13T12:11:54;94779.47;;;14.11;48.15
5879;BME280;2965;42.640;23.370;2023-03-13T12:14:29;94772.75;;;14.02;46.44
5879;BME280;2965;42.640;23.370;2023-03-13T12:17:03;94766.00;;;14.48;48.78
5879;BME280;2965;42.640;23.370;2023-03-13T12:19:40;94765.16;;;14.27;47.48
5879;BME280;2965;42.640;23.370;2023-03-13T12:22:14;94766.03;;;15.01;45.68
5879;BME280;2965;42.640;23.370;2023-03-13T12:24:59;94758.00;;;15.54;43.12
5879;BME280;2965;42.640;23.370;2023-03-13T12:30:48;94749.94;;;15.94;42.84
5879;BME280;2965;42.640;23.370;2023-03-13T12:33:31;94751.03;;;15.86;42.53
5879;BME280;2965;42.640;23.370;2023-03-13T12:36:16;94751.28;;;16.48;42.21
5879;BME280;2965;42.640;23.370;2023-03-13T12:38:55;94746.50;;;17.13;39.59
5879;BME280;2965;42.640;23.370;2023-03-13T12:41:32;94748.94;;;16.89;41.32
5879;BME280;2965;42.640;23.370;2023-03-13T12:44:00;94753.88;;;17.29;39.92
5879;BME280;2965;42.640;23.370;2023-03-13T12:48:54;94746.31;;;16.89;41.69
5879;BME280;2965;42.640;23.370;2023-03-13T13:01:58;94752.22;;;15.19;40.82
5879;BME280;2965;42.640;23.370;2023-03-13T13:04:31;94750.00;;;14.56;41.61
5879;BME280;2965;42.640;23.370;2023-03-13T13:07:01;94754.97;;;15.44;42.56
5879;BME280;2965;42.640;23.370;2023-03-13T13:12:20;94741.16;;;15.68;42.53
5879;BME280;2965;42.640;23.370;2023-03-13T13:17:21;94750.72;;;16.01;43.34
5879;BME280;2965;42.640;23.370;2023-03-13T13:19:49;94750.97;;;15.93;47.07
5879;BME280;2965;42.640;23.370;2023-03-13T13:25:01;94760.66;;;16.44;40.42
5879;BME280;2965;42.640;23.370;2023-03-13T13:27:47;94743.88;;;15.93;38.55
5879;BME280;2965;42.640;23.370;2023-03-13T13:32:44;94733.47;;;17.36;42.06
5879;BME280;2965;42.640;23.370;2023-03-13T13:41:20;94730.81;;;16.11;40.85
5879;BME280;2965;42.640;23.370;2023-03-13T13:43:48;94728.56;;;15.63;41.23
5879;BME280;2965;42.640;23.370;2023-03-13T13:46:30;94732.13;;;15.89;41.41
5879;BME280;2965;42.640;23.370;2023-03-13T13:51:28;94733.88;;;17.70;40.50
5879;BME280;2965;42.640;23.370;2023-03-13T14:01:46;94718.03;;;17.15;40.93
5879;BME280;2965;42.640;23.370;2023-03-13T14:04:28;94718.50;;;16.30;38.91
5879;BME280;2965;42.640;23.370;2023-03-13T14:06:58;94722.44;;;16.14;40.33
5879;BME280;2965;42.640;23.370;2023-03-13T14:10:03;94717.97;;;16.72;41.31
5879;BME280;2965;42.640;23.370;2023-03-13T14:12:33;94707.16;;;17.23;49.61
5879;BME280;2965;42.640;23.370;2023-03-13T14:15:29;94710.09;;;17.88;39.11
5879;BME280;2965;42.640;23.370;2023-03-13T14:17:57;94706.88;;;17.86;37.66
5879;BME280;2965;42.640;23.370;2023-03-13T14:20:32;94711.56;;;18.68;39.63
5879;BME280;2965;42.640;23.370;2023-03-13T14:23:01;94707.09;;;18.57;36.13
5879;BME280;2965;42.640;23.370;2023-03-13T14:25:39;94705.44;;;18.86;38.15
5879;BME280;2965;42.640;23.370;2023-03-13T14:28:17;94711.47;;;19.69;42.04
5879;BME280;2965;42.640;23.370;2023-03-13T14:30:43;94706.94;;;20.38;34.25
5879;BME280;2965;42.640;23.370;2023-03-13T14:33:09;94704.53;;;19.79;35.94
5879;BME280;2965;42.640;23.370;2023-03-13T14:35:34;94711.88;;;20.17;35.67
5879;BME280;2965;42.640;23.370;2023-03-13T14:38:01;94705.69;;;18.43;34.96
5879;BME280;2965;42.640;23.370;2023-03-13T14:40:28;94704.03;;;18.95;41.39
5879;BME280;2965;42.640;23.370;2023-03-13T14:42:57;94703.97;;;19.54;34.38
5879;BME280;2965;42.640;23.370;2023-03-13T14:45:32;94704.59;;;18.85;34.80
5879;BME280;2965;42.640;23.370;2023-03-13T14:50:50;94704.88;;;20.11;39.30
5879;BME280;2965;42.640;23.370;2023-03-13T14:53:20;94698.94;;;20.50;34.17
5879;BME280;2965;42.640;23.370;2023-03-13T14:55:46;94693.44;;;20.11;32.38
5879;BME280;2965;42.640;23.370;2023-03-13T15:00:46;94699.25;;;19.68;37.59
5879;BME280;2965;42.640;23.370;2023-03-13T15:05:42;94696.56;;;20.08;33.30
5879;BME280;2965;42.640;23.370;2023-03-13T15:08:17;94701.13;;;20.24;33.35
5879;BME280;2965;42.640;23.370;2023-03-13T15:10:43;94702.25;;;20.28;32.60
5879;BME280;2965;42.640;23.370;2023-03-13T15:15:46;94690.78;;;16.96;35.14
5879;BME280;2965;42.640;23.370;2023-03-13T15:18:19;94699.78;;;16.88;36.47
5879;BME280;2965;42.640;23.370;2023-03-13T15:20:58;94693.75;;;16.81;35.18
5879;BME280;2965;42.640;23.370;2023-03-13T15:23:54;94703.22;;;16.07;37.80
5879;BME280;2965;42.640;23.370;2023-03-13T15:26:21;94698.84;;;15.95;36.85
5879;BME280;2965;42.640;23.370;2023-03-13T15:28:46;94700.97;;;16.43;37.97
5879;BME280;2965;42.640;23.370;2023-03-13T15:31:12;94703.38;;;16.44;37.43
5879;BME280;2965;42.640;23.370;2023-03-13T15:33:40;94707.28;;;15.72;36.78
5879;BME280;2965;42.640;23.370;2023-03-13T15:36:06;94715.56;;;15.75;37.28
5879;BME280;2965;42.640;23.370;2023-03-13T15:38:31;94714.56;;;15.70;38.13
5879;BME280;2965;42.640;23.370;2023-03-13T15:40:57;94718.56;;;15.27;37.88
5879;BME280;2965;42.640;23.370;2023-03-13T15:43:22;94715.56;;;15.62;38.40
5879;BME280;2965;42.640;23.370;2023-03-13T15:45:49;94720.16;;;15.28;39.04
5879;BME280;2965;42.640;23.370;2023-03-13T15:50:45;94720.16;;;15.22;39.38
5879;BME280;2965;42.640;23.370;2023-03-13T15:53:22;94723.91;;;14.87;41.31
5879;BME280;2965;42.640;23.370;2023-03-13T15:55:49;94725.94;;;14.59;41.01
5879;BME280;2965;42.640;23.370;2023-03-13T15:58:15;94716.97;;;14.33;42.18
5879;BME280;2965;42.640;23.370;2023-03-13T16:00:41;94717.63;;;14.62;41.85
5879;BME280;2965;42.640;23.370;2023-03-13T16:03:25;94724.31;;;14.84;42.93
5879;BME280;2965;42.640;23.370;2023-03-13T16:05:52;94728.56;;;14.92;41.90
5879;BME280;2965;42.640;23.370;2023-03-13T16:08:27;94726.09;;;14.91;41.93
5879;BME280;2965;42.640;23.370;2023-03-13T16:10:53;94708.91;;;14.81;42.40
5879;BME280;2965;42.640;23.370;2023-03-13T16:13:19;94713.16;;;14.69;42.73
5879;BME280;2965;42.640;23.370;2023-03-13T16:15:46;94716.34;;;14.18;43.49
5879;BME280;2965;42.640;23.370;2023-03-13T16:18:18;94710.25;;;13.98;44.64
5879;BME280;2965;42.640;23.370;2023-03-13T16:20:45;94710.56;;;13.61;45.84
5879;BME280;2965;42.640;23.370;2023-03-13T16:23:11;94700.22;;;13.53;45.65
5879;BME280;2965;42.640;23.370;2023-03-13T16:25:37;94695.66;;;13.27;46.56
5879;BME280;2965;42.640;23.370;2023-03-13T16:28:03;94697.44;;;12.85;46.76
5879;BME280;2965;42.640;23.370;2023-03-13T16:30:30;94705.50;;;12.34;47.73
5879;BME280;2965;42.640;23.370;2023-03-13T16:32:56;94701.28;;;12.12;48.61
5879;BME280;2965;42.640;23.370;2023-03-13T16:35:22;94711.53;;;11.85;49.16
5879;BME280;2965;42.640;23.370;2023-03-13T16:37:48;94709.84;;;11.63;49.99
5879;BME280;2965;42.640;23.370;2023-03-13T16:40:27;94719.16;;;11.51;50.17
5879;BME280;2965;42.640;23.370;2023-03-13T16:42:53;94715.13;;;11.48;50.15
5879;BME280;2965;42.640;23.370;2023-03-13T16:45:19;94719.72;;;11.61;50.03
5879;BME280;2965;42.640;23.370;2023-03-13T16:47:44;94726.75;;;11.60;50.89
5879;BME280;2965;42.640;23.370;2023-03-13T16:50:20;94736.28;;;11.68;50.94
5879;BME280;2965;42.640;23.370;2023-03-13T16:52:46;94729.78;;;11.64;52.03
5879;BME280;2965;42.640;23.370;2023-03-13T16:55:11;94745.09;;;11.60;51.52
5879;BME280;2965;42.640;23.370;2023-03-13T16:57:36;94744.75;;;11.49;52.64
5879;BME280;2965;42.640;23.370;2023-03-13T17:00:04;94750.19;;;11.47;52.80
5879;BME280;2965;42.640;23.370;2023-03-13T17:02:35;94748.34;;;11.33;54.32
5879;BME280;2965;42.640;23.370;2023-03-13T17:05:01;94743.78;;;11.20;53.32
5879;BME280;2965;42.640;23.370;2023-03-13T17:07:27;94742.25;;;10.96;53.73
5879;BME280;2965;42.640;23.370;2023-03-13T17:12:29;94750.56;;;10.62;54.53
5879;BME280;2965;42.640;23.370;2023-03-13T17:14:54;94750.38;;;10.49;55.36
5879;BME280;2965;42.640;23.370;2023-03-13T17:17:21;94747.47;;;10.44;56.04
5879;BME280;2965;42.640;23.370;2023-03-13T17:19:47;94744.03;;;10.28;55.73
5879;BME280;2965;42.640;23.370;2023-03-13T17:22:15;94745.38;;;10.16;56.49
5879;BME280;2965;42.640;23.370;2023-03-13T17:24:42;94751.31;;;10.10;55.80
5879;BME280;2965;42.640;23.370;2023-03-13T17:27:12;94754.22;;;9.92;58.33
5879;BME280;2965;42.640;23.370;2023-03-13T17:29:37;94749.59;;;9.71;59.90
5879;BME280;2965;42.640;23.370;2023-03-13T17:32:03;94745.22;;;9.64;59.29
5879;BME280;2965;42.640;23.370;2023-03-13T17:34:30;94745.47;;;9.46;61.02
5879;BME280;2965;42.640;23.370;2023-03-13T17:36:56;94743.63;;;9.23;62.33
5879;BME280;2965;42.640;23.370;2023-03-13T17:39:21;94747.13;;;8.99;63.42
5879;BME280;2965;42.640;23.370;2023-03-13T17:41:49;94750.59;;;8.75;64.34
5879;BME280;2965;42.640;23.370;2023-03-13T17:44:14;94755.19;;;8.65;65.86
5879;BME280;2965;42.640;23.370;2023-03-13T17:46:42;94762.72;;;8.44;66.90
5879;BME280;2965;42.640;23.370;2023-03-13T17:49:11;94761.06;;;8.26;68.02
5879;BME280;2965;42.640;23.370;2023-03-13T17:51:36;94768.22;;;8.08;69.68
5879;BME280;2965;42.640;23.370;2023-03-13T17:54:02;94775.34;;;7.81;69.31
5879;BME280;2965;42.640;23.370;2023-03-13T17:56:32;94773.31;;;7.59;67.41
5879;BME280;2965;42.640;23.370;2023-03-13T17:59:01;94780.00;;;7.53;66.08
5879;BME280;2965;42.640;23.370;2023-03-13T18:01:28;94778.50;;;7.51;65.35
5879;BME280;2965;42.640;23.370;2023-03-13T18:03:54;94779.44;;;7.42;64.36
5879;BME280;2965;42.640;23.370;2023-03-13T18:06:23;94777.03;;;7.40;61.69
5879;BME280;2965;42.640;23.370;2023-03-13T18:08:50;94772.75;;;7.39;61.70
5879;BME280;2965;42.640;23.370;2023-03-13T18:11:17;94774.28;;;7.50;62.00
5879;BME280;2965;42.640;23.370;2023-03-13T18:13:44;94779.50;;;7.50;60.93
5879;BME280;2965;42.640;23.370;2023-03-13T18:16:28;94770.38;;;7.54;60.39
5879;BME280;2965;42.640;23.370;2023-03-13T18:19:05;94764.88;;;7.57;60.50
5879;BME280;2965;42.640;23.370;2023-03-13T18:21:31;94774.97;;;7.68;60.12
5879;BME280;2965;42.640;23.370;2023-03-13T18:23:56;94772.69;;;7.65;59.79
5879;BME280;2965;42.640;23.370;2023-03-13T18:28:48;94771.72;;;7.58;58.12
5879;BME280;2965;42.640;23.370;2023-03-13T18:31:14;94770.22;;;7.55;58.04
5879;BME280;2965;42.640;23.370;2023-03-13T18:33:39;94770.69;;;7.51;58.49
5879;BME280;2965;42.640;23.370;2023-03-13T18:36:17;94764.16;;;7.39;58.42
5879;BME280;2965;42.640;23.370;2023-03-13T18:38:43;94771.94;;;7.30;58.64
5879;BME280;2965;42.640;23.370;2023-03-13T18:41:09;94770.47;;;7.28;59.79
5879;BME280;2965;42.640;23.370;2023-03-13T18:43:34;94774.84;;;7.27;59.15
5879;BME280;2965;42.640;23.370;2023-03-13T18:46:00;94773.84;;;7.20;59.27
5879;BME280;2965;42.640;23.370;2023-03-13T18:48:25;94780.34;;;7.24;59.22
5879;BME280;2965;42.640;23.370;2023-03-13T18:50:51;94784.56;;;7.17;59.25
5879;BME280;2965;42.640;23.370;2023-03-13T18:53:16;94784.25;;;7.20;59.23
5879;BME280;2965;42.640;23.370;2023-03-13T18:55:41;94796.75;;;7.17;59.65
5879;BME280;2965;42.640;23.370;2023-03-13T18:58:09;94802.13;;;7.15;59.35
5879;BME280;2965;42.640;23.370;2023-03-13T19:00:35;94789.78;;;7.17;60.38
5879;BME280;2965;42.640;23.370;2023-03-13T19:03:00;94786.50;;;7.15;60.52
5879;BME280;2965;42.640;23.370;2023-03-13T19:05:26;94791.81;;;7.05;59.29
5879;BME280;2965;42.640;23.370;2023-03-13T19:07:51;94798.50;;;6.56;64.47
5879;BME280;2965;42.640;23.370;2023-03-13T19:10:25;94793.66;;;6.61;63.42
5879;BME280;2965;42.640;23.370;2023-03-13T19:12:52;94798.13;;;6.69;62.53
5879;BME280;2965;42.640;23.370;2023-03-13T19:15:18;94792.47;;;6.73;62.06
5879;BME280;2965;42.640;23.370;2023-03-13T19:17:46;94799.47;;;6.55;61.64
5879;BME280;2965;42.640;23.370;2023-03-13T19:20:16;94796.56;;;6.58;60.71
5879;BME280;2965;42.640;23.370;2023-03-13T19:22:43;94803.25;;;6.61;61.27
5879;BME280;2965;42.640;23.370;2023-03-13T19:25:09;94810.41;;;6.41;61.30
5879;BME280;2965;42.640;23.370;2023-03-13T19:27:35;94815.06;;;6.37;60.67
5879;BME280;2965;42.640;23.370;2023-03-13T19:30:00;94815.47;;;6.42;60.31
5879;BME280;2965;42.640;23.370;2023-03-13T19:32:25;94813.81;;;6.41;58.11
5879;BME280;2965;42.640;23.370;2023-03-13T19:34:51;94805.56;;;6.46;58.71
5879;BME280;2965;42.640;23.370;2023-03-13T19:37:16;94808.56;;;6.33;60.95
5879;BME280;2965;42.640;23.370;2023-03-13T19:39:43;94807.97;;;6.21;62.63
5879;BME280;2965;42.640;23.370;2023-03-13T19:42:08;94815.25;;;6.00;64.17
5879;BME280;2965;42.640;23.370;2023-03-13T19:44:35;94811.03;;;5.99;67.77
5879;BME280;2965;42.640;23.370;2023-03-13T19:47:00;94812.81;;;5.98;65.60
5879;BME280;2965;42.640;23.370;2023-03-13T19:49:26;94814.16;;;6.02;65.83
5879;BME280;2965;42.640;23.370;2023-03-13T19:51:52;94808.50;;;6.07;65.48
5879;BME280;2965;42.640;23.370;2023-03-13T19:54:18;94811.84;;;6.17;65.92
5879;BME280;2965;42.640;23.370;2023-03-13T19:56:45;94814.81;;;6.22;66.29
5879;BME280;2965;42.640;23.370;2023-03-13T19:59:18;94805.75;;;6.26;66.48
5879;BME280;2965;42.640;23.370;2023-03-13T20:01:44;94807.16;;;6.39;66.57
5879;BME280;2965;42.640;23.370;2023-03-13T20:04:11;94806.78;;;6.34;67.15
5879;BME280;2965;42.640;23.370;2023-03-13T20:06:38;94807.75;;;6.15;66.57
5879;BME280;2965;42.640;23.370;2023-03-13T20:09:06;94804.56;;;6.03;68.49
5879;BME280;2965;42.640;23.370;2023-03-13T20:11:33;94805.09;;;6.06;68.06
5879;BME280;2965;42.640;23.370;2023-03-13T20:13:59;94808.56;;;5.97;67.14
5879;BME280;2965;42.640;23.370;2023-03-13T20:16:26;94811.78;;;5.81;67.28
5879;BME280;2965;42.640;23.370;2023-03-13T20:18:53;94812.81;;;5.89;67.00
5879;BME280;2965;42.640;23.370;2023-03-13T20:21:23;94809.28;;;5.90;68.18
5879;BME280;2965;42.640;23.370;2023-03-13T20:23:51;94809.13;;;5.91;69.40
5879;BME280;2965;42.640;23.370;2023-03-13T20:26:18;94810.34;;;5.97;69.58
5879;BME280;2965;42.640;23.370;2023-03-13T20:28:47;94819.13;;;5.86;70.56